Terminal Aerodrome Forecast
Issued by NWS Upton, NY

Home | Current Version | Previous Version | Text Only | Print | Product List | Glossary On
Versions: 1 2 3 4 5 6 7 8 9 10 11 12 13 14 15 16 17 18 19 20 21 22 23 24 25 26 27 28 29 30 31 32 33 34
598
FTUS41 KOKX 281147
TAFBDR
TAF
KBDR 281147Z 2812/2912 VRB04KT P6SM FEW250
     FM281400 17006KT P6SM SCT250
     FM281800 18010KT P6SM FEW070 BKN200
     FM282200 18007KT P6SM FEW070 BKN200
     FM290000 18005KT P6SM FEW070 BKN200
     FM290200 18004KT P6SM VCSH SCT070 BKN150
     FM290800 VRB03KT 6SM -SHRA SCT060 BKN120=

USA.gov is the U.S. government's official web portal to all federal, state and local government web resources and services.